createdAt,value
2018-03-02T00:02:02.034Z,62.60
2018-03-02T00:04:29.628Z,62.60
2018-03-02T00:06:57.087Z,62.90
2018-03-02T00:09:24.532Z,62.90
2018-03-02T00:11:51.979Z,62.90
2018-03-02T00:14:19.416Z,63.10
2018-03-02T00:16:46.905Z,63.00
2018-03-02T00:19:14.341Z,63.00
2018-03-02T00:21:42.202Z,63.30
2018-03-02T00:24:09.649Z,63.20
2018-03-02T00:38:39.324Z,63.30
2018-03-02T00:41:06.761Z,63.50
2018-03-02T00:43:34.184Z,63.30
2018-03-02T00:46:01.617Z,63.30
2018-03-02T00:48:29.048Z,63.40
2018-03-02T00:50:56.497Z,63.60
2018-03-02T00:53:23.933Z,63.70
2018-03-02T00:55:51.380Z,63.80
2018-03-02T00:58:18.816Z,63.90
2018-03-02T01:00:46.644Z,64.10
2018-03-02T01:03:14.080Z,64.10
2018-03-02T01:05:41.514Z,64.10
2018-03-02T01:08:08.942Z,64.00
2018-03-02T01:10:36.771Z,64.20
2018-03-02T01:13:04.208Z,64.20
2018-03-02T01:15:31.645Z,64.30
2018-03-02T01:17:59.071Z,64.30
2018-03-02T01:20:26.906Z,64.70
2018-03-02T01:22:54.324Z,64.70
2018-03-02T01:25:21.772Z,64.70
2018-03-02T01:27:49.196Z,64.80
2018-03-02T01:30:16.639Z,64.90
2018-03-02T01:32:44.074Z,64.90
2018-03-02T01:35:11.508Z,65.00
2018-03-02T01:37:38.961Z,65.00
2018-03-02T01:40:06.393Z,65.20
2018-03-02T01:42:34.228Z,65.10
2018-03-02T01:45:01.702Z,65.10
2018-03-02T01:47:29.144Z,65.20
2018-03-02T01:49:56.580Z,65.40
2018-03-02T01:52:24.036Z,65.40
2018-03-02T01:54:51.469Z,65.20
2018-03-02T01:57:18.929Z,65.50
2018-03-02T01:59:46.357Z,65.70
2018-03-02T02:02:14.188Z,65.70
2018-03-02T02:04:41.628Z,65.70
2018-03-02T02:07:09.058Z,65.90
2018-03-02T02:09:36.481Z,65.90
2018-03-02T02:12:04.328Z,66.10
2018-03-02T02:14:31.760Z,66.10
2018-03-02T02:16:59.191Z,66.00
2018-03-02T02:19:26.634Z,66.10
2018-03-02T02:21:54.079Z,66.00
2018-03-02T02:24:21.487Z,66.10
2018-03-02T02:26:48.936Z,66.40
2018-03-02T02:29:16.357Z,66.50
2018-03-02T02:31:43.789Z,66.60
2018-03-02T02:34:11.212Z,66.40
2018-03-02T02:36:38.658Z,66.60
2018-03-02T02:39:06.081Z,66.50
2018-03-02T02:41:33.521Z,66.60
2018-03-02T02:44:00.941Z,66.80
2018-03-02T02:46:28.382Z,66.80
2018-03-02T02:48:55.806Z,66.90
2018-03-02T02:51:23.245Z,66.70
2018-03-02T02:53:50.666Z,66.60
2018-03-02T02:56:18.104Z,66.60
2018-03-02T02:58:45.530Z,66.70
2018-03-02T03:01:13.355Z,66.90
2018-03-02T03:03:40.807Z,66.90
2018-03-02T03:06:08.244Z,67.20
2018-03-02T03:08:35.668Z,67.20
2018-03-02T03:11:03.114Z,67.20
2018-03-02T03:13:30.931Z,67.60
2018-03-02T03:15:58.376Z,67.60
2018-03-02T03:18:25.795Z,67.40
2018-03-02T03:20:53.237Z,67.70
2018-03-02T03:23:20.674Z,67.70
2018-03-02T03:25:48.113Z,67.80
2018-03-02T03:28:15.553Z,67.90
2018-03-02T03:30:42.997Z,67.80
2018-03-02T03:33:10.417Z,67.90
2018-03-02T03:35:37.849Z,67.90
2018-03-02T03:38:05.286Z,68.00
2018-03-02T03:40:32.716Z,68.10
2018-03-02T03:43:00.153Z,68.20
2018-03-02T03:45:27.622Z,68.30
2018-03-02T03:47:55.456Z,68.30
2018-03-02T03:50:22.878Z,68.30
2018-03-02T03:52:50.308Z,68.40
2018-03-02T03:55:17.732Z,68.50
2018-03-02T03:57:45.564Z,68.50
2018-03-02T04:00:12.995Z,68.50
2018-03-02T04:02:40.422Z,68.50
2018-03-02T04:05:08.241Z,68.70
2018-03-02T04:07:35.739Z,68.70
2018-03-02T04:10:03.115Z,68.80
2018-03-02T04:12:30.576Z,68.90
2018-03-02T04:14:58.005Z,68.90
2018-03-02T04:17:25.852Z,68.90
2018-03-02T04:19:53.286Z,68.90
2018-03-02T04:22:20.725Z,68.80
2018-03-02T04:24:48.155Z,68.70
2018-03-02T04:27:15.601Z,68.90
2018-03-02T04:29:43.425Z,69.00
2018-03-02T04:32:10.871Z,69.00
2018-03-02T04:34:38.742Z,68.90
2018-03-02T04:37:06.187Z,69.00
2018-03-02T04:39:33.622Z,69.10
2018-03-02T04:42:01.440Z,69.20
2018-03-02T04:44:28.870Z,69.20
2018-03-02T04:46:56.366Z,69.10
2018-03-02T04:49:23.800Z,69.30
2018-03-02T04:51:51.241Z,69.20
2018-03-02T04:54:18.664Z,69.00
2018-03-02T04:56:46.105Z,69.10
2018-03-02T04:59:13.531Z,69.20
2018-03-02T05:01:40.972Z,69.10
2018-03-02T05:04:08.427Z,69.10
2018-03-02T05:06:35.869Z,69.30
2018-03-02T05:09:03.297Z,69.50
2018-03-02T05:11:31.120Z,70.70
2018-03-02T05:13:58.548Z,70.70
2018-03-02T05:16:25.982Z,71.10
2018-03-02T05:18:53.405Z,71.20
2018-03-02T05:21:20.840Z,71.40
2018-03-02T05:23:48.278Z,71.60
2018-03-02T05:26:15.726Z,71.80
2018-03-02T05:28:43.148Z,72.00
2018-03-02T05:31:10.981Z,72.10
2018-03-02T05:33:38.401Z,72.10
2018-03-02T05:36:05.837Z,72.20
2018-03-02T05:38:33.261Z,72.30
2018-03-02T05:41:00.697Z,72.40
2018-03-02T05:43:28.130Z,72.40
2018-03-02T05:45:55.556Z,72.40
2018-03-02T05:48:23.376Z,72.60
2018-03-02T05:50:50.805Z,72.60
2018-03-02T05:53:18.240Z,72.60
2018-03-02T05:55:46.062Z,72.50
2018-03-02T05:58:13.508Z,72.60
2018-03-02T06:00:40.928Z,72.70
2018-03-02T06:03:08.378Z,72.70
2018-03-02T06:05:36.198Z,72.80
2018-03-02T06:08:03.628Z,72.70
2018-03-02T06:10:31.056Z,72.70
2018-03-02T06:12:58.480Z,72.70
2018-03-02T06:15:25.904Z,72.70
2018-03-02T06:17:53.341Z,72.80
2018-03-02T06:20:20.765Z,72.80
2018-03-02T06:22:48.600Z,72.80
2018-03-02T06:25:16.042Z,72.80
2018-03-02T06:27:43.593Z,72.70
2018-03-02T06:30:11.025Z,72.70
2018-03-02T06:32:38.456Z,72.70
2018-03-02T06:35:06.343Z,72.60
2018-03-02T06:37:33.773Z,72.60
2018-03-02T06:40:01.604Z,72.60
2018-03-02T06:42:29.043Z,72.60
2018-03-02T06:44:56.465Z,72.60
2018-03-02T06:47:23.891Z,72.60
2018-03-02T06:49:51.330Z,72.70
2018-03-02T06:52:18.800Z,72.60
2018-03-02T06:54:46.224Z,72.70
2018-03-02T06:57:16.400Z,72.60
2018-03-02T06:59:44.225Z,72.80
2018-03-02T07:02:11.669Z,72.80
2018-03-02T07:04:39.112Z,72.60
2018-03-02T07:07:06.550Z,72.80
2018-03-02T07:09:33.975Z,72.50
2018-03-02T07:12:01.410Z,72.40
2018-03-02T07:14:28.837Z,72.40
2018-03-02T07:16:56.264Z,72.60
2018-03-02T07:19:24.097Z,72.50
2018-03-02T07:21:51.524Z,72.50
2018-03-02T07:24:18.949Z,72.40
2018-03-02T07:26:46.776Z,72.50
2018-03-02T07:29:14.208Z,72.50
2018-03-02T07:31:41.663Z,72.60
2018-03-02T07:34:09.110Z,72.60
2018-03-02T07:36:36.536Z,72.40
2018-03-02T07:39:03.980Z,72.30
2018-03-02T07:41:31.404Z,72.40
2018-03-02T07:43:58.836Z,72.40
2018-03-02T07:46:26.285Z,72.30
2018-03-02T07:48:53.716Z,72.20
2018-03-02T07:51:21.547Z,72.10
2018-03-02T07:53:48.980Z,72.10
2018-03-02T07:56:16.408Z,72.00
2018-03-02T07:58:43.850Z,72.00
2018-03-02T08:01:11.673Z,72.10
2018-03-02T08:03:39.113Z,72.00
2018-03-02T08:06:06.562Z,71.90
2018-03-02T08:08:34.017Z,71.60
2018-03-02T08:11:01.459Z,71.60
2018-03-02T08:13:28.932Z,71.60
2018-03-02T08:15:56.376Z,71.60
2018-03-02T08:18:23.814Z,71.40
2018-03-02T08:20:51.236Z,71.40
2018-03-02T08:23:18.724Z,71.40
2018-03-02T08:25:46.147Z,71.30
2018-03-02T08:40:52.984Z,70.50
2018-03-02T08:43:20.458Z,70.40
2018-03-02T08:45:47.888Z,70.40
2018-03-02T08:48:15.308Z,70.40
2018-03-02T08:50:42.751Z,70.40
2018-03-02T08:53:10.201Z,70.10
2018-03-02T08:55:37.616Z,69.90
2018-03-02T08:58:05.053Z,69.90
2018-03-02T09:00:32.529Z,70.10
2018-03-02T09:02:59.940Z,70.00
2018-03-02T09:05:27.792Z,70.00
2018-03-02T09:07:55.226Z,70.00
2018-03-02T09:10:22.663Z,69.70
2018-03-02T09:12:50.101Z,69.70
2018-03-02T09:15:17.546Z,69.80
2018-03-02T09:17:45.009Z,69.50
2018-03-02T09:20:12.441Z,69.40
2018-03-02T09:22:40.289Z,69.40
2018-03-02T09:25:07.729Z,69.30
2018-03-02T09:27:35.161Z,69.50
2018-03-02T09:30:02.623Z,69.30
2018-03-02T09:32:30.042Z,69.30
2018-03-02T09:34:57.905Z,69.30
2018-03-02T09:37:25.733Z,69.10
2018-03-02T09:39:53.172Z,69.10
2018-03-02T09:42:20.618Z,68.80
2018-03-02T09:44:48.082Z,68.90
2018-03-02T09:47:15.512Z,69.00
2018-03-02T09:49:42.949Z,69.10
2018-03-02T09:52:10.786Z,68.90
2018-03-02T09:54:38.277Z,68.90
2018-03-02T09:57:06.109Z,68.50
2018-03-02T09:59:33.548Z,68.50
2018-03-02T10:02:00.990Z,68.30
2018-03-02T10:04:28.426Z,68.30
2018-03-02T10:06:55.869Z,68.40
2018-03-02T10:09:23.696Z,68.50
2018-03-02T10:11:51.146Z,68.50
2018-03-02T10:14:18.575Z,68.20
2018-03-02T10:16:46.058Z,68.20
2018-03-02T10:19:13.503Z,68.10
2018-03-02T10:21:40.938Z,67.90
2018-03-02T10:24:08.368Z,67.60
2018-03-02T10:26:35.796Z,67.90
2018-03-02T10:29:03.228Z,67.90
2018-03-02T10:31:30.679Z,67.90
2018-03-02T10:33:58.117Z,67.50
2018-03-02T10:36:25.567Z,67.50
2018-03-02T10:38:53.019Z,67.60
2018-03-02T10:41:20.856Z,67.10
2018-03-02T10:43:48.300Z,67.10
2018-03-02T10:46:15.751Z,67.20
2018-03-02T10:48:43.198Z,67.20
2018-03-02T10:51:10.627Z,67.20
2018-03-02T10:53:38.086Z,67.20
2018-03-02T10:56:05.767Z,67.10
2018-03-02T10:58:34.141Z,67.10
2018-03-02T11:01:07.137Z,66.80
2018-03-02T11:03:34.574Z,66.80
2018-03-02T11:06:02.008Z,66.50
2018-03-02T11:08:29.828Z,66.30
2018-03-02T11:10:57.260Z,66.20
2018-03-02T11:13:24.697Z,66.30
2018-03-02T11:15:52.123Z,66.30
2018-03-02T11:18:19.597Z,66.30
2018-03-02T11:20:47.020Z,66.30
2018-03-02T11:23:14.452Z,66.50
2018-03-02T11:25:41.894Z,66.60
2018-03-02T11:28:09.348Z,66.70
2018-03-02T11:30:36.794Z,66.50
2018-03-02T11:33:04.241Z,66.40
2018-03-02T11:35:31.687Z,66.40
2018-03-02T11:37:59.500Z,66.00
2018-03-02T11:40:26.932Z,66.00
2018-03-02T11:42:54.384Z,66.20
2018-03-02T11:45:21.818Z,66.10
2018-03-02T11:47:49.254Z,65.80
2018-03-02T11:50:16.694Z,65.60
2018-03-02T11:52:44.135Z,65.40
2018-03-02T11:55:11.578Z,65.50
2018-03-02T11:57:39.005Z,65.60
2018-03-02T12:00:06.457Z,65.50
2018-03-02T12:02:34.272Z,64.90
2018-03-02T12:05:01.715Z,64.90
2018-03-02T12:07:29.181Z,64.60
2018-03-02T12:09:56.832Z,64.60
2018-03-02T12:12:24.256Z,64.60
2018-03-02T12:14:51.696Z,64.70
2018-03-02T12:17:19.520Z,64.10
2018-03-02T12:19:46.964Z,64.10
2018-03-02T12:22:14.392Z,64.20
2018-03-02T12:24:42.238Z,64.30
2018-03-02T12:27:09.660Z,64.30
2018-03-02T12:29:37.101Z,64.10
2018-03-02T12:32:04.536Z,63.80
2018-03-02T12:34:31.981Z,63.60
2018-03-02T12:36:59.412Z,63.60
2018-03-02T12:39:26.855Z,63.60
2018-03-02T12:41:54.282Z,63.90
2018-03-02T12:44:21.721Z,63.90
2018-03-02T12:46:49.169Z,63.90
2018-03-02T12:49:16.727Z,63.90
2018-03-02T12:51:44.431Z,64.00
2018-03-02T12:54:11.905Z,64.00
2018-03-02T12:56:39.332Z,63.90
2018-03-02T12:59:06.814Z,63.60
2018-03-02T13:01:34.256Z,63.80
2018-03-02T13:04:01.771Z,63.60
2018-03-02T13:06:29.584Z,63.50
2018-03-02T13:08:57.020Z,63.50
2018-03-02T13:11:24.445Z,63.50
2018-03-02T13:13:51.881Z,63.60
2018-03-02T13:16:19.306Z,63.50
2018-03-02T13:18:46.739Z,63.60
2018-03-02T13:21:14.184Z,63.50
2018-03-02T13:23:42.335Z,63.60
2018-03-02T13:26:09.776Z,63.60
2018-03-02T13:28:49.075Z,63.50
2018-03-02T13:31:16.526Z,63.30
2018-03-02T13:33:55.781Z,63.30
2018-03-02T13:36:23.223Z,63.50
2018-03-02T13:38:51.340Z,63.30
2018-03-02T13:41:30.997Z,63.30
2018-03-02T13:43:59.272Z,63.00
2018-03-02T13:46:26.748Z,63.00
2018-03-02T13:49:05.937Z,63.00
2018-03-02T13:51:33.424Z,62.80
2018-03-02T13:54:00.855Z,62.80
2018-03-02T13:56:40.046Z,62.80
2018-03-02T13:59:08.392Z,62.80
2018-03-02T14:01:35.848Z,62.80
2018-03-02T14:04:15.386Z,62.80
2018-03-02T14:06:42.830Z,62.80
2018-03-02T14:09:10.684Z,62.60
2018-03-02T14:11:38.136Z,62.60
2018-03-02T14:14:06.008Z,62.70
2018-03-02T14:16:33.486Z,62.70
2018-03-02T14:19:01.317Z,62.60
2018-03-02T14:21:28.793Z,62.50
2018-03-02T14:23:56.225Z,62.40
2018-03-02T14:26:23.677Z,62.20
2018-03-02T14:28:51.149Z,62.50
2018-03-02T14:31:18.603Z,62.50
2018-03-02T14:33:46.048Z,62.70
2018-03-02T14:36:13.500Z,62.70
2018-03-02T14:38:40.937Z,62.80
2018-03-02T14:41:08.406Z,62.30
2018-03-02T14:43:35.855Z,62.00
2018-03-02T14:46:03.524Z,62.10
2018-03-02T14:48:30.949Z,61.80
2018-03-02T14:50:58.395Z,62.20
2018-03-02T14:53:25.868Z,61.40
2018-03-02T14:55:53.816Z,61.40
2018-03-02T14:58:21.311Z,61.70
2018-03-02T15:00:48.814Z,61.50
2018-03-02T15:03:16.268Z,61.40
2018-03-02T15:05:43.716Z,61.70
2018-03-02T15:08:11.174Z,61.50
2018-03-02T15:10:38.623Z,61.50
2018-03-02T15:13:06.067Z,61.70
2018-03-02T15:15:33.513Z,61.80
2018-03-02T15:18:01.012Z,62.00
2018-03-02T15:20:28.473Z,62.30
2018-03-02T15:22:56.344Z,62.00
2018-03-02T15:25:24.419Z,62.20
2018-03-02T15:27:53.116Z,62.20
2018-03-02T15:30:20.941Z,62.40
2018-03-02T15:32:48.391Z,62.50
2018-03-02T15:35:15.820Z,62.50
2018-03-02T15:37:43.256Z,62.40
2018-03-02T15:40:10.688Z,62.40
2018-03-02T15:42:38.535Z,62.10
2018-03-02T15:45:05.957Z,62.10
2018-03-02T15:47:35.836Z,62.50
2018-03-02T15:50:03.273Z,62.30
2018-03-02T15:52:30.700Z,62.30
2018-03-02T15:54:58.131Z,62.60
2018-03-02T15:57:25.578Z,62.60
2018-03-02T15:59:53.008Z,62.60
2018-03-02T16:02:20.451Z,62.60
2018-03-02T16:04:47.870Z,63.30
2018-03-02T16:07:15.297Z,63.40
2018-03-02T16:09:42.764Z,63.10
2018-03-02T16:12:10.200Z,63.30
2018-03-02T16:14:37.631Z,63.70
2018-03-02T16:17:05.073Z,63.50
2018-03-02T16:19:32.528Z,63.20
2018-03-02T16:21:59.978Z,63.30
2018-03-02T16:24:27.424Z,63.50
2018-03-02T16:26:54.892Z,63.70
2018-03-02T16:29:22.399Z,63.50
2018-03-02T16:31:49.827Z,63.40
2018-03-02T16:34:17.260Z,63.60
2018-03-02T16:36:44.689Z,63.80
2018-03-02T16:39:12.120Z,64.50
2018-03-02T16:41:39.550Z,64.50
2018-03-02T16:44:06.989Z,64.00
2018-03-02T16:46:34.412Z,64.00
2018-03-02T16:49:01.862Z,64.00
2018-03-02T16:51:29.306Z,64.00
2018-03-02T16:53:57.143Z,64.00
2018-03-02T16:56:24.952Z,64.00
2018-03-02T16:58:52.422Z,63.70
2018-03-02T17:01:19.845Z,63.50
2018-03-02T17:03:47.341Z,63.90
2018-03-02T17:06:14.785Z,63.80
2018-03-02T17:08:42.233Z,63.80
2018-03-02T17:11:09.669Z,64.30
2018-03-02T17:13:37.540Z,64.40
2018-03-02T17:16:05.004Z,64.40
2018-03-02T17:18:33.643Z,64.50
2018-03-02T17:21:01.127Z,64.60
2018-03-02T17:23:29.155Z,64.40
2018-03-02T17:25:58.115Z,64.60
2018-03-02T17:28:25.565Z,64.20
2018-03-02T17:30:53.823Z,64.40
2018-03-02T17:33:21.279Z,64.70
2018-03-02T17:35:48.786Z,64.70
2018-03-02T17:38:16.230Z,64.80
2018-03-02T17:40:43.692Z,64.90
2018-03-02T17:43:11.894Z,64.90
2018-03-02T17:45:39.374Z,64.70
2018-03-02T17:48:07.061Z,64.90
2018-03-02T17:50:34.781Z,65.10
2018-03-02T17:53:02.219Z,64.80
2018-03-02T17:55:29.639Z,64.70
2018-03-02T17:57:57.072Z,64.80
2018-03-02T18:00:24.909Z,64.30
2018-03-02T18:02:52.335Z,64.40
2018-03-02T18:05:19.769Z,64.40
2018-03-02T18:07:47.209Z,64.50
2018-03-02T18:10:15.040Z,64.90
2018-03-02T18:12:42.468Z,64.90
2018-03-02T18:15:09.901Z,64.60
2018-03-02T18:17:37.346Z,64.40
2018-03-02T18:20:04.812Z,64.40
2018-03-02T18:22:32.249Z,64.30
2018-03-02T18:24:59.677Z,64.80
2018-03-02T18:27:27.120Z,64.80
2018-03-02T18:29:54.580Z,64.80
2018-03-02T18:32:22.015Z,64.90
2018-03-02T18:34:50.369Z,64.80
2018-03-02T18:37:17.809Z,64.90
2018-03-02T18:39:45.629Z,64.80
2018-03-02T18:42:13.066Z,64.80
2018-03-02T18:44:40.536Z,65.10
2018-03-02T18:47:07.969Z,65.20
2018-03-02T18:49:35.440Z,65.40
2018-03-02T18:52:02.902Z,65.30
2018-03-02T18:54:30.320Z,65.10
2018-03-02T18:56:58.156Z,65.40
2018-03-02T18:59:25.585Z,65.40
2018-03-02T19:01:53.037Z,65.10
2018-03-02T19:04:20.464Z,65.20
2018-03-02T19:06:47.919Z,65.40
2018-03-02T19:09:15.344Z,65.60
2018-03-02T19:11:42.781Z,65.90
2018-03-02T19:14:10.220Z,65.80
2018-03-02T19:16:37.720Z,66.00
2018-03-02T19:19:05.152Z,66.30
2018-03-02T19:21:32.585Z,66.60
2018-03-02T19:24:00.009Z,66.70
2018-03-02T19:26:27.848Z,66.60
2018-03-02T19:28:55.284Z,66.60
2018-03-02T19:31:22.712Z,67.20
2018-03-02T19:33:50.146Z,67.20
2018-03-02T19:36:17.581Z,66.60
2018-03-02T19:38:45.028Z,67.10
2018-03-02T19:41:12.490Z,66.80
2018-03-02T19:43:39.937Z,67.20
2018-03-02T19:46:07.379Z,66.60
2018-03-02T19:48:34.809Z,66.30
2018-03-02T19:51:02.236Z,66.20
2018-03-02T19:53:30.074Z,66.50
2018-03-02T19:55:57.501Z,66.50
2018-03-02T19:58:24.936Z,66.50
2018-03-02T20:00:52.405Z,66.70
2018-03-02T20:03:19.804Z,66.40
2018-03-02T20:05:47.229Z,66.70
2018-03-02T20:08:14.661Z,67.20
2018-03-02T20:10:42.092Z,67.40
2018-03-02T20:13:09.916Z,66.60
2018-03-02T20:15:37.361Z,66.60
2018-03-02T20:18:04.788Z,66.30
2018-03-02T20:20:32.234Z,66.70
2018-03-02T20:22:59.671Z,66.70
2018-03-02T20:25:27.124Z,67.40
2018-03-02T20:27:54.548Z,67.60
2018-03-02T20:30:22.002Z,67.30
2018-03-02T20:32:49.440Z,68.40
2018-03-02T20:35:16.872Z,68.70
2018-03-02T20:37:44.704Z,71.10
2018-03-02T20:40:12.217Z,71.10
2018-03-02T20:42:39.653Z,71.70
2018-03-02T20:45:07.484Z,74.40
2018-03-02T20:47:34.927Z,74.40
2018-03-02T20:50:02.353Z,76.00
2018-03-02T20:52:29.859Z,78.30
2018-03-02T20:54:57.249Z,79.30
2018-03-02T20:57:24.708Z,80.10
2018-03-02T20:59:52.152Z,80.80
2018-03-02T21:02:19.592Z,81.10
2018-03-02T21:04:47.036Z,82.10
2018-03-02T21:07:14.484Z,82.80
2018-03-02T21:09:41.909Z,83.80
2018-03-02T21:12:09.353Z,84.30
2018-03-02T21:14:36.788Z,84.90
2018-03-02T21:17:04.648Z,86.20
2018-03-02T21:19:32.097Z,86.20
2018-03-02T21:21:59.533Z,85.80
2018-03-02T21:24:26.976Z,85.50
2018-03-02T21:26:54.413Z,85.50
2018-03-02T21:29:21.865Z,85.80
2018-03-02T21:31:49.296Z,85.70
2018-03-02T21:34:18.978Z,85.10
2018-03-02T21:36:44.560Z,85.10
2018-03-02T21:39:12.138Z,85.20
2018-03-02T21:41:39.457Z,85.60
2018-03-02T21:44:06.957Z,87.10
2018-03-02T21:46:34.435Z,87.80
2018-03-02T21:49:01.888Z,87.30
2018-03-02T21:51:29.290Z,86.30
2018-03-02T21:53:56.740Z,86.30
2018-03-02T21:56:24.177Z,87.00
2018-03-02T21:58:52.002Z,87.00
2018-03-02T22:01:19.441Z,87.00
2018-03-02T22:03:46.879Z,87.70
2018-03-02T22:06:14.327Z,87.60
2018-03-02T22:08:41.777Z,87.80
2018-03-02T22:11:09.257Z,88.30
2018-03-02T22:13:36.684Z,88.30
2018-03-02T22:16:04.144Z,88.70
2018-03-02T22:18:31.586Z,89.10
2018-03-02T22:20:59.050Z,89.20
2018-03-02T22:23:26.455Z,89.50
2018-03-02T22:25:53.890Z,89.40
2018-03-02T22:28:21.320Z,88.70
2018-03-02T22:30:49.181Z,87.10
2018-03-02T22:33:17.009Z,87.60
2018-03-02T22:35:44.441Z,87.60
2018-03-02T22:38:11.876Z,87.90
2018-03-02T22:40:39.322Z,87.70
2018-03-02T22:43:07.144Z,88.90
2018-03-02T22:45:34.608Z,88.90
2018-03-02T22:48:02.070Z,89.10
2018-03-02T22:50:29.512Z,89.80
2018-03-02T22:52:56.972Z,89.20
2018-03-02T22:55:27.946Z,89.00
2018-03-02T22:57:57.294Z,88.40
2018-03-02T23:00:25.618Z,88.40
2018-03-02T23:02:53.061Z,88.50
2018-03-02T23:05:20.492Z,88.70
2018-03-02T23:07:48.007Z,88.80
2018-03-02T23:10:16.084Z,88.50
2018-03-02T23:12:43.935Z,88.80
2018-03-02T23:15:11.804Z,88.90
2018-03-02T23:17:39.651Z,89.30
2018-03-02T23:20:08.068Z,89.30
2018-03-02T23:22:35.516Z,88.90
2018-03-02T23:25:02.972Z,89.20
2018-03-02T23:27:30.453Z,89.40
2018-03-02T23:29:57.965Z,89.70
2018-03-02T23:32:26.300Z,89.00
2018-03-02T23:34:53.777Z,88.70
2018-03-02T23:37:21.227Z,89.10
2018-03-02T23:39:48.741Z,89.00
2018-03-02T23:42:17.139Z,89.30
2018-03-02T23:44:44.809Z,89.30
2018-03-02T23:47:12.502Z,89.30
2018-03-02T23:49:39.963Z,89.30
2018-03-02T23:52:07.423Z,89.20
2018-03-02T23:54:34.880Z,89.10
2018-03-02T23:57:02.908Z,89.20
2018-03-02T23:59:30.391Z,89.40
